Time;durP1;ratioP1;P1;durP2;ratioP2;P2;SDS_P1;SDS_P2;PMS_P1;PMS_P2;Temp;Humidity;BMP_temperature;BMP_pressure;BME280_temperature;BME280_humidity;BME280_pressure;Samples;Min_cycle;Max_cycle;Signal;HPM_P1;HPM_P2
2021/12/29 00:00:58;;;;;;;35.73;17.17;;;;;;;0.70;89.64;94886.22;1736197;83;20990;-61
2021/12/29 00:03:25;;;;;;;30.80;15.73;;;;;;;0.70;89.77;94881.88;1736062;83;20998;-60
2021/12/29 00:05:54;;;;;;;30.87;14.57;;;;;;;0.75;89.72;94883.22;1735676;83;21018;-61
2021/12/29 00:08:20;;;;;;;31.10;16.40;;;;;;;0.80;89.87;94884.13;1736264;82;20982;-61
2021/12/29 00:10:54;;;;;;;28.77;16.27;;;;;;;0.83;89.67;94881.54;1735849;83;21092;-61
2021/12/29 00:13:19;;;;;;;30.47;15.73;;;;;;;0.75;89.29;94878.03;1736717;81;21527;-61
2021/12/29 00:15:44;;;;;;;31.47;17.03;;;;;;;0.76;89.39;94878.48;1736233;81;21551;-61
2021/12/29 00:18:11;;;;;;;32.13;16.43;;;;;;;0.76;89.52;94875.45;1736116;83;20970;-61
2021/12/29 00:20:37;;;;;;;25.27;13.73;;;;;;;0.82;89.83;94875.48;1736099;82;21527;-61
2021/12/29 00:23:07;;;;;;;38.70;19.83;;;;;;;0.83;89.43;94877.24;1735962;83;20994;-61
2021/12/29 00:25:34;;;;;;;31.67;16.97;;;;;;;0.75;89.17;94878.89;1736024;82;21013;-61
2021/12/29 00:28:01;;;;;;;27.00;13.17;;;;;;;0.69;89.26;94881.45;1736148;82;21021;-61
2021/12/29 00:30:29;;;;;;;21.07;11.83;;;;;;;0.66;89.38;94878.84;1735593;83;21112;-61
2021/12/29 00:32:57;;;;;;;22.90;12.63;;;;;;;0.66;89.67;94885.33;1735978;83;21029;-61
2021/12/29 00:35:44;;;;;;;22.83;12.20;;;;;;;0.63;89.75;94882.69;1735895;82;21030;-61
2021/12/29 00:38:29;;;;;;;24.07;12.90;;;;;;;0.59;89.79;94880.51;1736093;83;21010;-61
2021/12/29 00:41:16;;;;;;;19.97;11.57;;;;;;;0.62;89.82;94889.61;1735643;83;21006;-61
2021/12/29 00:43:46;;;;;;;24.33;13.43;;;;;;;0.65;89.86;94884.88;1736872;82;21040;-61
2021/12/29 00:46:29;;;;;;;24.30;12.87;;;;;;;0.67;89.90;94892.69;1646596;86;21552;-61
2021/12/29 00:48:56;;;;;;;23.53;13.43;;;;;;;0.71;90.00;94882.78;1739182;81;20995;-61
2021/12/29 00:51:24;;;;;;;23.60;12.43;;;;;;;0.78;90.16;94886.73;1739667;82;21088;-61
2021/12/29 00:53:50;;;;;;;27.27;14.33;;;;;;;0.74;89.88;94890.15;1739860;82;21492;-61
2021/12/29 00:56:17;;;;;;;24.57;12.57;;;;;;;0.71;89.78;94882.78;1796381;79;21017;-61
2021/12/29 00:58:44;;;;;;;26.73;13.47;;;;;;;0.70;89.92;94884.91;1796089;80;21005;-61
2021/12/29 01:01:11;;;;;;;28.67;14.40;;;;;;;0.69;89.91;94879.30;1795700;80;21056;-61
2021/12/29 01:03:39;;;;;;;28.10;14.10;;;;;;;0.72;89.94;94886.66;1795976;80;21800;-61
2021/12/29 01:06:06;;;;;;;21.73;11.87;;;;;;;0.77;90.07;94882.81;1795967;80;20985;-62
2021/12/29 01:08:33;;;;;;;26.60;13.00;;;;;;;0.80;89.88;94878.93;1795858;80;21468;-61
2021/12/29 01:11:00;;;;;;;25.53;12.33;;;;;;;0.80;89.98;94873.30;1795654;80;21084;-62
2021/12/29 01:13:41;;;;;;;27.30;13.13;;;;;;;0.80;89.74;94873.73;1796363;80;20978;-61
2021/12/29 01:18:38;;;;;;;24.00;12.33;;;;;;;0.76;89.75;94867.66;1795995;80;20998;-61
2021/12/29 01:21:06;;;;;;;26.63;14.27;;;;;;;0.80;89.77;94868.55;1796342;80;20954;-61
2021/12/29 01:23:33;;;;;;;21.80;11.87;;;;;;;0.76;89.61;94873.30;1795993;80;20973;-61
2021/12/29 01:26:00;;;;;;;26.73;13.53;;;;;;;0.71;89.50;94871.09;1796116;80;21048;-61
2021/12/29 01:28:27;;;;;;;41.63;19.60;;;;;;;0.70;89.58;94875.39;1795563;80;20954;-61
2021/12/29 01:30:54;;;;;;;31.07;15.77;;;;;;;0.69;89.54;94873.67;1795517;80;21517;-61
2021/12/29 01:33:22;;;;;;;28.80;14.90;;;;;;;0.59;89.73;94867.53;1795985;80;20958;-62
2021/12/29 01:35:49;;;;;;;29.77;14.10;;;;;;;0.60;89.79;94863.20;1795833;80;21041;-61
2021/12/29 01:38:16;;;;;;;25.33;12.57;;;;;;;0.59;90.09;94868.83;1796072;80;20926;-61
2021/12/29 01:40:48;;;;;;;24.60;12.17;;;;;;;0.59;90.18;94862.34;1795931;80;20989;-62
2021/12/29 01:43:12;;;;;;;29.30;13.53;;;;;;;0.59;90.25;94862.77;1795192;80;21002;-61
2021/12/29 01:45:38;;;;;;;32.37;14.40;;;;;;;0.60;90.40;94847.19;1781445;80;20996;-61
2021/12/29 01:48:06;;;;;;;28.17;12.93;;;;;;;0.67;90.28;94858.94;1778438;80;20989;-61
2021/12/29 01:50:35;;;;;;;26.30;12.40;;;;;;;0.62;90.32;94844.18;1778133;81;21011;-61
2021/12/29 01:53:08;;;;;;;29.40;14.37;;;;;;;0.63;90.23;94857.63;1778221;80;21012;-61
2021/12/29 01:55:31;;;;;;;29.23;13.97;;;;;;;0.64;90.38;94840.31;1730416;83;21035;-62
2021/12/29 01:57:59;;;;;;;24.20;11.43;;;;;;;0.63;90.13;94852.42;1778198;81;21502;-61
2021/12/29 02:00:31;;;;;;;26.13;12.60;;;;;;;0.67;90.30;94836.87;1730735;83;21035;-61
2021/12/29 02:02:58;;;;;;;22.80;12.20;;;;;;;0.70;90.34;94844.67;1778241;81;21084;-62
2021/12/29 02:05:24;;;;;;;25.47;11.57;;;;;;;0.75;90.34;94841.23;1730761;83;21493;-61
2021/12/29 02:07:51;;;;;;;19.53;10.97;;;;;;;0.81;90.24;94844.33;1778155;80;21108;-61
2021/12/29 02:10:21;;;;;;;27.50;13.40;;;;;;;0.86;90.29;94842.20;1730751;83;21039;-61
2021/12/29 02:12:47;;;;;;;23.40;11.97;;;;;;;0.88;89.98;94846.52;1778226;80;21012;-62
2021/12/29 02:15:15;;;;;;;22.43;11.47;;;;;;;0.93;90.14;94843.08;1730561;83;21020;-61
2021/12/29 02:17:42;;;;;;;20.03;11.27;;;;;;;0.93;89.66;94834.00;1778110;80;21019;-61
2021/12/29 02:20:12;;;;;;;23.43;10.93;;;;;;;0.95;89.81;94834.88;1730825;83;21545;-61
2021/12/29 02:22:45;;;;;;;21.87;11.40;;;;;;;1.00;89.98;94831.02;1778406;81;21019;-61
2021/12/29 02:27:48;;;;;;;19.13;10.50;;;;;;;0.99;89.81;94825.39;1778617;80;21055;-62
2021/12/29 02:30:18;;;;;;;14.17;9.30;;;;;;;1.02;89.75;94826.27;1730901;83;21027;-61
2021/12/29 02:32:45;;;;;;;15.73;9.33;;;;;;;1.02;89.39;94830.16;1778262;81;20964;-62
2021/12/29 02:35:15;;;;;;;16.70;9.90;;;;;;;0.99;89.10;94831.45;1762798;81;21019;-62
2021/12/29 02:37:43;;;;;;;17.47;9.73;;;;;;;0.98;89.02;94831.03;1740546;82;21054;-62
2021/12/29 02:40:12;;;;;;;17.13;9.80;;;;;;;1.00;89.01;94827.12;1740614;82;21049;-62
2021/12/29 02:42:41;;;;;;;18.47;11.43;;;;;;;0.98;89.03;94827.53;1778394;80;21023;-62
2021/12/29 02:45:13;;;;;;;19.13;12.00;;;;;;;0.92;88.77;94820.58;1786870;80;21471;-62
2021/12/29 02:47:41;;;;;;;22.87;12.13;;;;;;;0.92;88.99;94821.02;1795986;80;21033;-61
2021/12/29 02:50:10;;;;;;;20.90;11.70;;;;;;;0.86;88.88;94812.33;1796052;80;20982;-61
2021/12/29 02:52:37;;;;;;;19.70;11.23;;;;;;;0.80;88.87;94816.17;1796109;80;21460;-61
2021/12/29 02:55:05;;;;;;;18.93;11.67;;;;;;;0.75;89.08;94813.11;1795850;80;20947;-61
2021/12/29 02:57:31;;;;;;;20.23;11.37;;;;;;;0.76;89.20;94805.78;1769615;80;21064;-62
2021/12/29 02:59:58;;;;;;;17.67;10.63;;;;;;;0.76;89.25;94807.94;1796083;80;20989;-61
2021/12/29 03:02:25;;;;;;;20.90;11.73;;;;;;;0.70;88.96;94808.32;1796113;80;20974;-61
2021/12/29 03:04:53;;;;;;;22.03;12.37;;;;;;;0.65;89.24;94804.39;1795792;80;21087;-62
2021/12/29 03:07:19;;;;;;;21.30;12.27;;;;;;;0.72;89.62;94800.12;1796435;80;20977;-61
2021/12/29 03:09:46;;;;;;;20.80;11.73;;;;;;;0.80;89.88;94798.43;1796159;80;21454;-61
2021/12/29 03:12:12;;;;;;;22.33;12.13;;;;;;;0.84;89.50;94800.20;1795819;80;21073;-61
2021/12/29 03:14:56;;;;;;;20.53;12.23;;;;;;;0.79;89.29;94796.27;1796127;80;20985;-61
2021/12/29 03:17:23;;;;;;;25.60;13.17;;;;;;;0.80;89.41;94797.13;1796141;80;21459;-60
2021/12/29 03:19:50;;;;;;;20.73;11.83;;;;;;;0.77;89.36;94791.92;1796335;80;21041;-60
2021/12/29 03:22:16;;;;;;;21.73;12.93;;;;;;;0.67;89.21;94792.30;1796096;80;21006;-60
2021/12/29 03:24:43;;;;;;;21.83;11.80;;;;;;;0.66;89.34;94788.41;1796268;80;20962;-60
2021/12/29 03:27:10;;;;;;;22.70;12.70;;;;;;;0.65;89.41;94787.52;1796358;80;20974;-61
2021/12/29 03:29:36;;;;;;;24.23;12.97;;;;;;;0.70;89.59;94787.55;1796115;80;20926;-60
2021/12/29 03:32:08;;;;;;;22.60;11.87;;;;;;;0.70;89.49;94792.30;1795868;80;21507;-60
2021/12/29 03:34:33;;;;;;;22.47;11.93;;;;;;;0.71;89.41;94791.91;1795793;80;21045;-62
2021/12/29 03:37:00;;;;;;;20.27;11.67;;;;;;;0.67;89.27;94787.54;1796000;80;21538;-61
2021/12/29 03:39:27;;;;;;;23.23;12.57;;;;;;;0.71;89.54;94781.52;1796247;80;20918;-60
2021/12/29 03:41:54;;;;;;;21.87;12.47;;;;;;;0.70;89.32;94786.25;1795608;80;21076;-60
2021/12/29 03:44:21;;;;;;;19.23;11.53;;;;;;;0.69;89.45;94780.20;1795889;80;21471;-60
2021/12/29 03:46:48;;;;;;;20.37;11.97;;;;;;;0.67;89.42;94779.75;1795933;80;20993;-61
2021/12/29 03:49:15;;;;;;;21.90;12.27;;;;;;;0.66;89.47;94783.22;1795784;80;20958;-60
2021/12/29 03:51:42;;;;;;;20.77;11.83;;;;;;;0.65;89.58;94784.92;1796347;80;20962;-60
2021/12/29 03:54:08;;;;;;;22.67;12.77;;;;;;;0.57;89.40;94784.01;1796329;80;20970;-60
2021/12/29 03:56:35;;;;;;;22.53;13.37;;;;;;;0.56;89.56;94774.06;1796051;80;20930;-61
2021/12/29 03:59:01;;;;;;;24.50;13.40;;;;;;;0.57;89.68;94782.71;1796131;80;21460;-61
2021/12/29 04:01:28;;;;;;;22.70;12.67;;;;;;;0.56;89.77;94779.69;1795938;80;20966;-60
2021/12/29 04:03:55;;;;;;;24.70;13.37;;;;;;;0.55;89.76;94785.72;1795717;80;21097;-60
2021/12/29 04:06:21;;;;;;;23.90;13.17;;;;;;;0.56;89.87;94776.66;1769666;80;21388;-60
2021/12/29 04:08:49;;;;;;;25.77;13.43;;;;;;;0.57;89.85;94780.98;1796326;80;21021;-60
2021/12/29 04:11:18;;;;;;;25.93;13.80;;;;;;;0.61;89.93;94781.45;1795983;80;20981;-61
2021/12/29 04:13:47;;;;;;;27.70;13.70;;;;;;;0.65;89.95;94783.62;1796225;80;21013;-60
2021/12/29 04:16:17;;;;;;;24.87;13.57;;;;;;;0.59;89.58;94784.46;1795953;80;21039;-60
2021/12/29 04:19:06;;;;;;;27.50;14.73;;;;;;;0.54;89.42;94778.80;1795902;80;21009;-60
2021/12/29 04:21:37;;;;;;;27.03;13.93;;;;;;;0.54;89.66;94780.10;1796071;80;20926;-60
2021/12/29 04:24:05;;;;;;;26.30;13.77;;;;;;;0.51;89.71;94778.36;1796012;80;20978;-61
2021/12/29 04:26:36;;;;;;;27.03;14.20;;;;;;;0.50;89.81;94777.03;1796037;80;21428;-60
2021/12/29 04:29:02;;;;;;;29.77;15.30;;;;;;;0.55;89.99;94774.04;1795854;80;20994;-60
2021/12/29 04:31:29;;;;;;;25.97;13.93;;;;;;;0.57;90.08;94769.73;1795876;80;21474;-60
2021/12/29 04:33:55;;;;;;;27.60;15.47;;;;;;;0.48;90.10;94781.34;1796405;80;20989;-60
2021/12/29 04:36:24;;;;;;;27.70;13.70;;;;;;;0.43;90.27;94775.71;1796226;80;21495;-60
2021/12/29 04:38:53;;;;;;;28.77;14.03;;;;;;;0.49;90.23;94781.80;1796166;80;20954;-61
2021/12/29 04:41:21;;;;;;;27.23;14.70;;;;;;;0.46;90.27;94780.48;1795985;80;21036;-61
2021/12/29 04:43:48;;;;;;;27.97;14.90;;;;;;;0.40;90.22;94779.59;1795721;80;21089;-60
2021/12/29 04:46:17;;;;;;;27.70;14.53;;;;;;;0.42;90.28;94779.14;1795795;79;20954;-60
2021/12/29 04:48:51;;;;;;;26.77;14.87;;;;;;;0.47;90.45;94783.08;1795991;80;20989;-61
2021/12/29 04:51:23;;;;;;;23.93;13.33;;;;;;;0.45;90.42;94781.33;1795463;80;21491;-61
2021/12/29 04:53:45;;;;;;;28.80;14.03;;;;;;;0.46;90.47;94780.05;1794827;80;20986;-60
2021/12/29 04:56:11;;;;;;;30.70;15.30;;;;;;;0.49;90.63;94774.02;1795738;80;21058;-60
2021/12/29 04:58:38;;;;;;;28.23;15.20;;;;;;;0.45;90.55;94777.00;1796317;80;20930;-61
2021/12/29 05:01:04;;;;;;;28.33;14.37;;;;;;;0.35;90.60;94770.01;1795618;80;21567;-60
2021/12/29 05:03:31;;;;;;;30.43;14.60;;;;;;;0.39;90.74;94771.34;1796392;80;20970;-60
2021/12/29 05:08:24;;;;;;;31.27;15.47;;;;;;;0.48;90.89;94764.06;1795858;80;20978;-60
2021/12/29 05:08:25;;;;;;;27.47;13.70;;;;;;;0.55;90.89;94766.25;1792158;80;21479;-60
2021/12/29 05:11:02;;;;;;;26.90;13.87;;;;;;;0.60;90.85;94769.75;1796112;80;21033;-60
2021/12/29 05:13:32;;;;;;;29.63;14.93;;;;;;;0.64;90.51;94774.11;1796010;80;21028;-60
2021/12/29 05:16:00;;;;;;;27.93;14.57;;;;;;;0.62;90.39;94771.49;1795820;80;21037;-61
2021/12/29 05:18:32;;;;;;;26.93;13.83;;;;;;;0.60;90.22;94770.61;1795998;80;21005;-61
2021/12/29 05:21:00;;;;;;;24.73;12.73;;;;;;;0.55;90.16;94775.34;1795866;80;20982;-60
2021/12/29 05:23:28;;;;;;;23.77;13.43;;;;;;;0.55;90.17;94771.45;1795993;80;21491;-60
2021/12/29 05:25:55;;;;;;;25.73;14.00;;;;;;;0.52;90.02;94774.03;1795958;80;21483;-60
2021/12/29 05:28:24;;;;;;;24.63;12.97;;;;;;;0.56;90.15;94781.85;1796021;80;20993;-61
2021/12/29 05:30:53;;;;;;;25.67;12.80;;;;;;;0.59;90.24;94777.11;1795750;80;21112;-60
2021/12/29 05:33:21;;;;;;;25.33;13.87;;;;;;;0.58;90.10;94778.84;1795975;80;21503;-60
2021/12/29 05:35:48;;;;;;;26.23;13.10;;;;;;;0.58;90.08;94777.55;1795835;80;21009;-60
2021/12/29 05:38:15;;;;;;;25.30;13.50;;;;;;;0.58;89.94;94773.66;1796257;80;20985;-60
2021/12/29 05:40:42;;;;;;;26.73;14.37;;;;;;;0.56;89.83;94775.36;1795618;80;21014;-61
2021/12/29 05:43:08;;;;;;;24.33;12.93;;;;;;;0.61;90.13;94774.96;1795973;80;20974;-60
2021/12/29 05:45:35;;;;;;;26.43;13.97;;;;;;;0.69;90.24;94774.14;1789780;80;21482;-60
2021/12/29 05:48:03;;;;;;;24.97;13.53;;;;;;;0.73;90.33;94766.39;1777844;80;21028;-60
2021/12/29 05:50:31;;;;;;;28.77;14.40;;;;;;;0.72;89.90;94767.23;1778207;80;21044;-61
2021/12/29 05:52:58;;;;;;;25.27;13.23;;;;;;;0.75;90.07;94772.43;1778229;80;21016;-60
2021/12/29 05:55:26;;;;;;;24.27;13.13;;;;;;;0.77;89.96;94768.56;1778216;81;21051;-61
2021/12/29 05:57:54;;;;;;;23.60;12.57;;;;;;;0.74;89.54;94772.44;1778836;80;21489;-60
2021/12/29 06:00:23;;;;;;;28.07;13.43;;;;;;;0.70;89.67;94771.53;1778325;81;20988;-61
2021/12/29 06:02:51;;;;;;;22.90;12.40;;;;;;;0.67;89.42;94769.37;1778035;81;21023;-60
2021/12/29 06:05:18;;;;;;;28.60;15.70;;;;;;;0.62;89.56;94770.19;1778327;80;21505;-60
2021/12/29 06:07:45;;;;;;;29.97;15.20;;;;;;;0.66;89.79;94763.31;1778224;80;21470;-61
2021/12/29 06:10:12;;;;;;;30.50;16.30;;;;;;;0.67;89.87;94770.23;1778188;80;21541;-61
2021/12/29 06:12:40;;;;;;;30.33;15.63;;;;;;;0.66;89.97;94775.00;1778306;81;21011;-60
2021/12/29 06:15:09;;;;;;;33.83;16.47;;;;;;;0.73;90.15;94781.97;1778231;81;21055;-60
2021/12/29 06:17:37;;;;;;;34.27;16.97;;;;;;;0.76;89.90;94786.31;1778063;81;21118;-60
2021/12/29 06:20:07;;;;;;;36.60;17.33;;;;;;;0.73;89.68;94783.67;1778218;81;21038;-60
2021/12/29 06:22:34;;;;;;;29.30;14.23;;;;;;;0.72;89.67;94789.73;1778335;81;21059;-60
2021/12/29 06:25:01;;;;;;;26.80;14.03;;;;;;;0.70;89.51;94787.55;1778209;81;21509;-60
2021/12/29 06:27:27;;;;;;;26.77;13.70;;;;;;;0.69;89.51;94797.52;1777948;80;21103;-60
2021/12/29 06:29:54;;;;;;;25.77;13.60;;;;;;;0.78;89.98;94796.25;1778023;81;21067;-60
2021/12/29 06:32:21;;;;;;;27.73;14.23;;;;;;;0.79;89.70;94805.36;1778145;80;21470;-60
2021/12/29 06:34:47;;;;;;;32.70;16.27;;;;;;;0.76;89.33;94803.19;1778408;80;20992;-60
2021/12/29 06:37:15;;;;;;;25.07;13.07;;;;;;;0.78;89.60;94806.23;1778233;80;20972;-60
2021/12/29 06:39:45;;;;;;;23.20;12.77;;;;;;;0.80;89.56;94804.92;1777935;81;21009;-60
2021/12/29 06:42:15;;;;;;;30.73;14.43;;;;;;;0.82;89.70;94816.20;1778242;80;20988;-61
2021/12/29 06:44:45;;;;;;;38.20;18.63;;;;;;;0.83;89.66;94811.02;1778138;80;20980;-61
2021/12/29 06:47:13;;;;;;;30.60;15.73;;;;;;;0.77;89.53;94804.47;1794016;80;21460;-62
2021/12/29 06:49:40;;;;;;;29.43;14.70;;;;;;;0.77;89.52;94810.10;1795868;80;21033;-62
2021/12/29 06:52:07;;;;;;;40.53;20.83;;;;;;;0.81;89.85;94810.14;1795812;80;20954;-62
2021/12/29 06:54:35;;;;;;;33.67;16.47;;;;;;;0.88;90.05;94811.02;1796056;80;20969;-62
2021/12/29 06:57:02;;;;;;;27.43;14.90;;;;;;;0.86;89.81;94812.33;1796025;80;20970;-62
2021/12/29 06:59:29;;;;;;;36.20;18.93;;;;;;;0.91;89.89;94811.47;1795757;80;20974;-62
2021/12/29 07:01:56;;;;;;;31.50;15.83;;;;;;;0.91;89.73;94810.17;1795957;80;21021;-62
2021/12/29 07:04:23;;;;;;;36.23;17.43;;;;;;;0.92;89.74;94811.93;1796142;80;20962;-62
2021/12/29 07:06:51;;;;;;;27.77;15.93;;;;;;;0.94;89.87;94812.81;1796045;80;20962;-62
2021/12/29 07:09:20;;;;;;;26.50;13.97;;;;;;;0.90;89.44;94811.05;1796118;80;20941;-62
2021/12/29 07:11:47;;;;;;;26.43;14.57;;;;;;;0.88;89.44;94811.02;1796050;80;21009;-62
2021/12/29 07:14:14;;;;;;;26.40;13.87;;;;;;;0.90;89.64;94805.84;1796290;80;21009;-62
2021/12/29 07:16:47;;;;;;;29.63;15.20;;;;;;;0.88;89.41;94810.16;1796118;80;21471;-65
2021/12/29 07:19:15;;;;;;;28.47;14.27;;;;;;;0.82;89.38;94815.76;1795900;80;21535;-62
2021/12/29 07:21:43;;;;;;;37.90;21.17;;;;;;;0.83;89.59;94821.41;1795814;80;21496;-62
2021/12/29 07:24:10;;;;;;;48.77;23.57;;;;;;;0.85;89.68;94820.10;1796177;80;21451;-62
2021/12/29 07:26:37;;;;;;;48.90;28.50;;;;;;;0.80;89.59;94814.01;1795932;80;21001;-62
2021/12/29 07:29:05;;;;;;;29.40;17.50;;;;;;;0.82;89.74;94814.89;1796005;80;20974;-62
2021/12/29 07:31:33;;;;;;;34.53;17.90;;;;;;;0.88;89.93;94817.95;1796033;80;21037;-62
2021/12/29 07:34:00;;;;;;;39.00;20.13;;;;;;;0.94;89.91;94825.36;1796130;80;20977;-62
2021/12/29 07:36:26;;;;;;;34.93;19.00;;;;;;;0.92;89.83;94827.52;1796146;80;21428;-62
2021/12/29 07:38:53;;;;;;;34.77;18.87;;;;;;;0.98;89.87;94835.33;1796287;80;20941;-62
2021/12/29 07:41:19;;;;;;;31.23;16.37;;;;;;;1.06;90.10;94832.37;1795992;80;20962;-61
2021/12/29 07:43:46;;;;;;;61.97;33.40;;;;;;;1.13;89.88;94824.16;1796388;80;21008;-62
2021/12/29 07:46:13;;;;;;;67.43;39.10;;;;;;;1.16;89.61;94823.76;1795951;80;21543;-62
2021/12/29 07:48:40;;;;;;;50.77;30.23;;;;;;;1.15;89.27;94822.44;1795805;80;20962;-62
2021/12/29 07:51:07;;;;;;;36.80;20.60;;;;;;;1.15;88.96;94823.73;1796014;80;21032;-62
2021/12/29 07:53:37;;;;;;;32.07;17.03;;;;;;;1.18;88.82;94828.50;1796238;80;20970;-61
2021/12/29 07:56:04;;;;;;;29.03;15.10;;;;;;;1.10;88.48;94817.22;1796093;80;20938;-62
2021/12/29 07:58:31;;;;;;;25.20;13.47;;;;;;;1.13;88.79;94820.26;1796137;80;21448;-62
2021/12/29 08:00:58;;;;;;;27.47;14.43;;;;;;;1.19;88.95;94828.10;1796276;80;20963;-62
2021/12/29 08:03:25;;;;;;;29.00;13.23;;;;;;;1.15;88.81;94828.50;1795875;80;21495;-62
2021/12/29 08:05:51;;;;;;;25.43;12.77;;;;;;;1.25;89.24;94815.98;1795980;80;21018;-62
2021/12/29 08:08:18;;;;;;;27.57;13.30;;;;;;;1.37;89.50;94817.78;1796001;80;21432;-62
2021/12/29 08:10:44;;;;;;;26.07;13.27;;;;;;;1.52;89.71;94813.08;1795950;80;21006;-62
2021/12/29 08:13:11;;;;;;;24.60;11.87;;;;;;;1.66;89.53;94815.70;1795969;80;20959;-62
2021/12/29 08:15:37;;;;;;;22.90;12.27;;;;;;;1.75;88.84;94814.88;1796050;80;21419;-62
2021/12/29 08:18:06;;;;;;;24.73;12.73;;;;;;;1.81;88.96;94809.23;1795928;80;21432;-62
2021/12/29 08:20:33;;;;;;;22.73;11.23;;;;;;;1.90;88.19;94820.12;1796074;80;21014;-62
2021/12/29 08:23:00;;;;;;;25.23;12.40;;;;;;;1.84;87.61;94820.08;1796004;80;20994;-62
2021/12/29 08:25:26;;;;;;;20.83;11.93;;;;;;;1.90;87.96;94814.91;1796145;80;20969;-62
2021/12/29 08:27:53;;;;;;;18.90;10.33;;;;;;;1.91;87.55;94817.50;1795758;80;20998;-62
2021/12/29 08:30:20;;;;;;;20.27;11.63;;;;;;;1.85;87.02;94819.23;1795809;80;21503;-62
2021/12/29 08:32:47;;;;;;;19.70;10.87;;;;;;;1.83;87.22;94819.22;1795555;80;20946;-62
2021/12/29 08:35:14;;;;;;;20.73;11.37;;;;;;;1.82;87.12;94825.74;1796144;80;20974;-62
2021/12/29 08:37:41;;;;;;;21.13;10.63;;;;;;;1.85;87.48;94829.20;1796021;80;21551;-61
2021/12/29 08:40:10;;;;;;;21.17;12.20;;;;;;;1.84;87.41;94822.28;1796202;80;21440;-62
2021/12/29 08:42:39;;;;;;;22.03;11.60;;;;;;;1.89;87.37;94826.16;1796072;80;20966;-62
2021/12/29 08:45:11;;;;;;;34.67;21.27;;;;;;;1.86;87.10;94824.86;1795927;80;21044;-61
2021/12/29 08:47:37;;;;;;;23.50;13.60;;;;;;;1.86;87.11;94831.37;1780424;80;21051;-62
2021/12/29 08:50:09;;;;;;;25.27;11.60;;;;;;;1.82;87.17;94838.75;1778468;81;21004;-61
2021/12/29 08:52:35;;;;;;;24.57;11.60;;;;;;;1.79;87.22;94832.20;1778209;80;21028;-62
2021/12/29 08:55:05;;;;;;;24.43;12.70;;;;;;;1.78;87.38;94834.39;1778317;80;21442;-62
2021/12/29 08:57:31;;;;;;;24.13;11.77;;;;;;;1.80;87.53;94834.83;1778158;80;21545;-62
2021/12/29 08:59:58;;;;;;;24.57;12.90;;;;;;;1.76;87.47;94838.27;1778403;81;21027;-62
2021/12/29 09:02:25;;;;;;;24.47;12.47;;;;;;;1.78;87.59;94841.75;1778488;80;20996;-63
2021/12/29 09:04:53;;;;;;;21.63;11.30;;;;;;;1.82;87.73;94836.14;1778265;80;20988;-62
2021/12/29 09:07:19;;;;;;;21.93;10.90;;;;;;;1.86;87.90;94843.07;1777975;81;21035;-61
2021/12/29 09:09:47;;;;;;;22.70;11.17;;;;;;;1.86;87.66;94843.07;1778579;81;20988;-61
2021/12/29 09:12:14;;;;;;;20.43;10.97;;;;;;;1.92;87.91;94841.80;1778319;81;21482;-62
2021/12/29 09:14:40;;;;;;;22.13;11.57;;;;;;;1.92;87.56;94835.30;1778388;81;21000;-62
2021/12/29 09:17:07;;;;;;;20.47;10.83;;;;;;;1.94;87.52;94834.84;1778399;81;21003;-62
2021/12/29 09:19:39;;;;;;;18.50;11.13;;;;;;;1.99;87.48;94827.95;1778206;80;21104;-62
2021/12/29 09:22:02;;;;;;;17.37;9.77;;;;;;;2.06;87.54;94830.11;1777877;80;21004;-61
2021/12/29 09:24:28;;;;;;;28.50;13.60;;;;;;;2.11;87.02;94825.78;1762567;81;21042;-61
2021/12/29 09:26:56;;;;;;;24.53;14.63;;;;;;;2.01;86.64;94821.43;1740424;82;21002;-62
2021/12/29 09:29:22;;;;;;;33.57;18.63;;;;;;;2.01;86.48;94825.33;1740476;82;21567;-61
2021/12/29 09:31:49;;;;;;;20.33;12.10;;;;;;;2.04;86.47;94820.13;1778173;81;20988;-62
2021/12/29 09:34:16;;;;;;;26.83;14.80;;;;;;;2.00;86.23;94817.97;1777874;80;21040;-62
2021/12/29 09:36:42;;;;;;;29.73;15.70;;;;;;;2.06;86.76;94817.96;1778375;81;21014;-62
2021/12/29 09:39:09;;;;;;;24.73;15.00;;;;;;;2.16;87.06;94808.00;1778335;80;21565;-62
2021/12/29 09:41:37;;;;;;;31.00;15.87;;;;;;;2.22;87.25;94807.16;1778295;81;20996;-62
2021/12/29 09:44:04;;;;;;;24.57;12.63;;;;;;;2.21;86.65;94805.41;1778342;80;21490;-62
2021/12/29 09:46:31;;;;;;;31.57;16.60;;;;;;;2.21;86.40;94799.34;1783444;80;21125;-62
2021/12/29 09:49:00;;;;;;;24.13;12.20;;;;;;;2.19;86.73;94803.67;1795926;80;20990;-62
2021/12/29 09:51:27;;;;;;;31.57;17.63;;;;;;;2.03;86.70;94794.55;1796128;80;21463;-62
2021/12/29 09:53:54;;;;;;;32.37;19.13;;;;;;;2.06;86.84;94793.68;1795668;80;21020;-62
2021/12/29 09:56:20;;;;;;;43.97;23.90;;;;;;;2.07;87.21;94793.70;1795935;80;21029;-62
2021/12/29 09:58:47;;;;;;;28.43;15.40;;;;;;;2.07;87.22;94800.20;1796044;80;20989;-62
2021/12/29 10:01:14;;;;;;;26.10;14.03;;;;;;;2.12;87.43;94794.56;1795619;80;21002;-62
2021/12/29 10:03:42;;;;;;;28.97;15.57;;;;;;;2.21;87.42;94797.59;1796023;80;20990;-62
2021/12/29 10:06:11;;;;;;;26.50;14.10;;;;;;;2.21;87.28;94795.00;1795930;80;21543;-61
2021/12/29 10:08:42;;;;;;;24.67;13.43;;;;;;;2.32;87.33;94785.91;1795837;80;21521;-61
2021/12/29 10:11:18;;;;;;;19.47;11.10;;;;;;;2.38;87.26;94793.27;1796042;80;21527;-61
2021/12/29 10:13:48;;;;;;;23.17;12.93;;;;;;;2.37;86.44;94794.59;1795992;80;20977;-62
2021/12/29 10:16:24;;;;;;;23.83;12.87;;;;;;;2.45;86.63;94796.75;1795853;80;20997;-61
2021/12/29 10:19:01;;;;;;;19.83;10.90;;;;;;;2.49;86.70;94791.09;1795521;80;21495;-61
2021/12/29 10:21:29;;;;;;;20.17;10.60;;;;;;;2.54;86.73;94794.56;1795657;80;21013;-61
2021/12/29 10:23:58;;;;;;;26.77;13.80;;;;;;;2.58;87.09;94795.86;1795952;80;21468;-61
2021/12/29 10:26:29;;;;;;;22.33;11.03;;;;;;;2.66;87.05;94798.45;1795659;80;21519;-61
2021/12/29 10:29:02;;;;;;;23.33;11.93;;;;;;;2.68;86.67;94794.56;1795372;80;21005;-62
2021/12/29 10:31:39;;;;;;;22.17;12.17;;;;;;;2.67;86.70;94799.32;1796024;80;21009;-62
2021/12/29 10:34:13;;;;;;;22.93;13.47;;;;;;;2.74;86.83;94788.03;1796029;80;21017;-61
2021/12/29 10:36:57;;;;;;;23.30;12.30;;;;;;;2.79;86.58;94791.05;1795831;80;20975;-61
2021/12/29 10:39:29;;;;;;;23.50;12.67;;;;;;;2.87;86.79;94782.36;1795947;80;21009;-61
2021/12/29 10:42:03;;;;;;;25.27;13.40;;;;;;;2.87;86.04;94783.22;1796208;80;20998;-61
2021/12/29 10:44:41;;;;;;;23.27;13.27;;;;;;;2.89;86.03;94778.88;1794300;80;21029;-61
2021/12/29 10:47:31;;;;;;;23.17;13.50;;;;;;;2.98;86.08;94779.31;1787874;80;21059;-61
2021/12/29 10:50:11;;;;;;;25.07;14.07;;;;;;;2.98;85.72;94776.27;1778000;81;21555;-62
2021/12/29 10:52:43;;;;;;;26.17;13.43;;;;;;;3.02;85.63;94781.91;1770479;80;21004;-62
2021/12/29 10:55:15;;;;;;;23.73;13.53;;;;;;;3.09;85.58;94776.67;1778470;80;21502;-62
2021/12/29 10:57:43;;;;;;;24.77;12.43;;;;;;;3.15;85.21;94779.23;1778468;81;21016;-62
2021/12/29 11:00:19;;;;;;;24.40;13.27;;;;;;;3.19;85.25;94775.77;1778391;80;21000;-62
2021/12/29 11:02:45;;;;;;;22.95;12.40;;;;;;;3.15;85.26;94772.72;1778324;80;21059;-62
2021/12/29 11:05:12;;;;;;;22.53;12.80;;;;;;;3.12;85.14;94770.14;1778187;80;21122;-62
2021/12/29 11:07:41;;;;;;;23.17;12.77;;;;;;;3.17;85.95;94768.38;1778452;80;21020;-63
2021/12/29 11:10:20;;;;;;;23.33;12.60;;;;;;;3.25;86.18;94764.00;1778348;81;21020;-62
2021/12/29 11:12:54;;;;;;;24.10;13.40;;;;;;;3.36;86.37;94762.23;1778374;81;20984;-61
2021/12/29 11:15:31;;;;;;;21.47;12.83;;;;;;;3.32;85.10;94761.80;1778417;80;21485;-61
2021/12/29 11:18:04;;;;;;;27.73;14.43;;;;;;;3.26;84.98;94761.84;1778246;81;21927;-61
2021/12/29 11:20:31;;;;;;;28.85;15.08;;;;;;;3.21;85.22;94770.12;1778423;80;20976;-61
2021/12/29 11:23:19;;;;;;;25.43;13.97;;;;;;;3.30;85.83;94760.08;1778458;80;21470;-61
2021/12/29 11:25:46;;;;;;;26.53;14.90;;;;;;;3.38;85.92;94769.62;1778468;80;20992;-61
2021/12/29 11:28:26;;;;;;;26.47;14.90;;;;;;;3.49;86.35;94758.27;1778063;80;21618;-61
2021/12/29 11:30:56;;;;;;;29.07;15.27;;;;;;;3.56;86.13;94760.84;1778367;80;21055;-61
2021/12/29 11:33:24;;;;;;;26.27;15.63;;;;;;;3.63;86.28;94766.45;1778623;80;21465;-63
2021/12/29 11:35:53;;;;;;;31.50;17.57;;;;;;;3.72;86.48;94768.13;1778443;81;21520;-61